Time;durP1;ratioP1;P1;durP2;ratioP2;P2;SDS_P1;SDS_P2;PMS_P1;PMS_P2;Temp;Humidity;BMP_temperature;BMP_pressure;BME280_temperature;BME280_humidity;BME280_pressure;Samples;Min_cycle;Max_cycle;Signal;HPM_P1;HPM_P2
2023/01/10 00:01:44;;;;;;;12.65;7.47;;;9.00;96.70;;;;;;5027485;28;20384;-72
2023/01/10 00:04:13;;;;;;;9.48;6.93;;;8.80;96.70;;;;;;5027152;28;20047;-72
2023/01/10 00:06:41;;;;;;;15.73;7.88;;;8.90;96.70;;;;;;5039359;28;20136;-73
2023/01/10 00:09:09;;;;;;;12.88;7.85;;;9.00;96.70;;;;;;5043296;28;20069;-73
2023/01/10 00:14:25;;;;;;;8.83;5.90;;;9.00;96.70;;;;;;5044821;28;20049;-73
2023/01/10 00:16:53;;;;;;;12.23;5.93;;;9.00;96.70;;;;;;5045326;28;20791;-73
2023/01/10 00:19:22;;;;;;;12.35;7.22;;;8.80;96.70;;;;;;5043232;28;20139;-72
2023/01/10 00:21:50;;;;;;;10.77;6.60;;;8.70;96.70;;;;;;5035527;28;20099;-73
2023/01/10 00:24:18;;;;;;;12.27;5.90;;;8.80;96.70;;;;;;5043401;28;20045;-73
2023/01/10 00:26:50;;;;;;;9.77;6.10;;;8.90;96.70;;;;;;5042900;28;20588;-73
2023/01/10 00:29:19;;;;;;;10.27;6.25;;;8.90;96.70;;;;;;5044649;28;20045;-73
2023/01/10 00:31:47;;;;;;;8.05;5.90;;;8.90;96.70;;;;;;5043373;28;20055;-72
2023/01/10 00:34:15;;;;;;;10.35;6.57;;;8.90;96.70;;;;;;5043178;28;20059;-73
2023/01/10 00:36:46;;;;;;;9.18;6.22;;;8.90;96.70;;;;;;5025994;28;20148;-73
2023/01/10 00:39:14;;;;;;;9.88;6.35;;;8.80;96.70;;;;;;5042313;28;20051;-73
2023/01/10 00:44:28;;;;;;;10.38;6.82;;;8.60;96.70;;;;;;5042603;28;20060;-72
2023/01/10 00:46:56;;;;;;;12.15;6.68;;;8.70;96.70;;;;;;5044462;28;20119;-72
2023/01/10 00:49:24;;;;;;;8.77;5.93;;;8.80;96.70;;;;;;5026714;28;20134;-73
2023/01/10 00:51:57;;;;;;;12.32;6.32;;;8.60;96.70;;;;;;5044500;28;20486;-72
2023/01/10 00:54:25;;;;;;;10.45;6.45;;;8.70;96.70;;;;;;5044189;28;20045;-73
2023/01/10 00:56:53;;;;;;;9.75;6.65;;;8.80;96.70;;;;;;5042699;28;20506;-73
2023/01/10 00:59:21;;;;;;;11.60;6.18;;;8.80;96.70;;;;;;5044285;28;20103;-72
2023/01/10 01:01:49;;;;;;;12.05;6.57;;;8.90;96.70;;;;;;5042813;28;20041;-73
2023/01/10 01:04:17;;;;;;;13.27;6.50;;;8.90;96.70;;;;;;5044320;28;20080;-73
2023/01/10 01:06:46;;;;;;;11.40;6.00;;;8.80;96.70;;;;;;5044024;28;20087;-73
2023/01/10 01:09:16;;;;;;;9.20;5.93;;;8.80;96.70;;;;;;5043780;28;20041;-72
2023/01/10 01:11:44;;;;;;;8.10;5.75;;;8.80;96.70;;;;;;5035811;28;20053;-73
2023/01/10 01:14:11;;;;;;;10.10;5.75;;;8.50;96.70;;;;;;5044267;28;20120;-73
2023/01/10 01:16:39;;;;;;;9.95;5.75;;;8.20;96.70;;;;;;5042579;28;20749;-72
2023/01/10 01:19:07;;;;;;;9.07;6.03;;;7.90;96.70;;;;;;5043648;28;20033;-73
2023/01/10 01:21:35;;;;;;;7.38;5.43;;;8.00;96.70;;;;;;5042017;28;20044;-72
2023/01/10 01:24:03;;;;;;;9.95;5.80;;;8.20;96.70;;;;;;5042711;28;20518;-72
2023/01/10 01:26:34;;;;;;;9.45;6.25;;;8.40;96.70;;;;;;5041493;28;20076;-72
2023/01/10 01:29:01;;;;;;;10.90;6.38;;;8.50;96.70;;;;;;5024405;28;20512;-73
2023/01/10 01:31:29;;;;;;;9.80;6.03;;;8.40;96.70;;;;;;5042321;28;20064;-73
2023/01/10 01:33:57;;;;;;;8.38;5.32;;;8.40;96.70;;;;;;5038207;28;20513;-72
2023/01/10 01:36:24;;;;;;;9.82;5.18;;;8.30;96.70;;;;;;5041358;28;20049;-73
2023/01/10 01:38:52;;;;;;;10.10;5.50;;;8.30;96.70;;;;;;5042989;28;20071;-73
2023/01/10 01:44:13;;;;;;;11.23;4.47;;;8.40;96.70;;;;;;5042518;28;20495;-72
2023/01/10 01:46:45;;;;;;;9.82;4.20;;;8.30;96.70;;;;;;5040664;28;20048;-71
2023/01/10 01:49:19;;;;;;;7.07;4.13;;;8.30;96.70;;;;;;5038125;28;20053;-73
2023/01/10 01:51:50;;;;;;;7.78;4.70;;;8.40;96.70;;;;;;5042246;28;20076;-73
2023/01/10 01:54:18;;;;;;;7.55;5.10;;;8.30;96.70;;;;;;5043482;28;20068;-72
2023/01/10 01:56:50;;;;;;;7.60;4.57;;;8.30;96.70;;;;;;5042950;28;20143;-72
2023/01/10 01:59:23;;;;;;;7.80;4.53;;;8.20;96.70;;;;;;5041138;28;20376;-72
2023/01/10 02:01:56;;;;;;;6.82;4.28;;;8.10;96.70;;;;;;5041769;28;20115;-73
2023/01/10 02:04:28;;;;;;;8.02;4.60;;;8.20;96.70;;;;;;5041713;28;20053;-72
2023/01/10 02:06:57;;;;;;;9.15;4.93;;;8.20;96.70;;;;;;5042966;28;20045;-73
2023/01/10 02:09:31;;;;;;;6.82;4.53;;;8.20;96.70;;;;;;5042233;28;20056;-72
2023/01/10 02:12:00;;;;;;;12.00;4.95;;;8.10;96.70;;;;;;5042088;28;20044;-73
2023/01/10 02:14:30;;;;;;;6.57;4.55;;;8.10;96.70;;;;;;5041175;28;20041;-73
2023/01/10 02:16:58;;;;;;;8.07;4.43;;;8.10;96.70;;;;;;5041568;28;20103;-73
2023/01/10 02:19:37;;;;;;;7.45;4.40;;;8.10;96.70;;;;;;5041083;28;20037;-73
2023/01/10 02:22:59;;;;;;;5.25;3.78;;;8.10;96.70;;;;;;5066780;28;20648;-73
2023/01/10 02:26:07;;;;;;;6.43;2.92;;;7.80;96.70;;;;;;4974883;28;20054;-73
2023/01/10 02:29:01;;;;;;;8.63;2.85;;;7.80;96.70;;;;;;4947803;28;20540;-72
2023/01/10 02:32:04;;;;;;;5.40;3.00;;;7.70;96.70;;;;;;4943664;28;20055;-72
2023/01/10 02:34:59;;;;;;;4.57;2.10;;;7.80;96.70;;;;;;4945166;28;20050;-73
2023/01/10 02:37:39;;;;;;;4.70;2.20;;;7.80;96.70;;;;;;4944934;28;20051;-72
2023/01/10 02:40:17;;;;;;;5.22;2.20;;;7.60;96.70;;;;;;4944643;28;20066;-72
2023/01/10 02:42:53;;;;;;;6.50;2.17;;;7.40;96.70;;;;;;4960728;28;20564;-73
2023/01/10 02:45:28;;;;;;;5.25;1.85;;;7.20;96.70;;;;;;4945172;28;20102;-72
2023/01/10 02:47:57;;;;;;;5.22;1.95;;;7.20;96.70;;;;;;4960572;28;20081;-73
2023/01/10 02:50:42;;;;;;;4.00;2.33;;;7.30;96.70;;;;;;4944978;28;21223;-72
2023/01/10 02:53:14;;;;;;;5.75;1.85;;;7.40;96.70;;;;;;4940792;28;20043;-73
2023/01/10 02:55:57;;;;;;;6.05;2.40;;;7.50;96.70;;;;;;4976410;28;20434;-72
2023/01/10 02:58:39;;;;;;;3.40;1.50;;;7.50;96.70;;;;;;5033286;28;20529;-71
2023/01/10 03:01:17;;;;;;;8.40;2.85;;;7.60;96.70;;;;;;5038612;28;20071;-72
2023/01/10 03:03:51;;;;;;;5.13;2.38;;;7.60;96.70;;;;;;5042062;28;20056;-72
2023/01/10 03:06:30;;;;;;;5.78;2.50;;;7.60;96.70;;;;;;5034954;28;20063;-72
2023/01/10 03:09:05;;;;;;;6.18;2.40;;;7.50;96.70;;;;;;5042104;28;20048;-73
2023/01/10 03:11:41;;;;;;;5.80;2.65;;;7.50;96.70;;;;;;5041081;28;20132;-73
2023/01/10 03:14:17;;;;;;;7.85;2.78;;;7.60;96.70;;;;;;5042013;28;20074;-73
2023/01/10 03:16:52;;;;;;;5.17;2.97;;;7.60;96.70;;;;;;5040125;28;20049;-73
2023/01/10 03:19:23;;;;;;;5.80;2.55;;;7.60;96.70;;;;;;5042162;28;20291;-72
2023/01/10 03:21:56;;;;;;;7.65;3.20;;;7.30;96.70;;;;;;5041442;28;20544;-72
2023/01/10 03:24:29;;;;;;;3.28;1.73;;;7.30;96.70;;;;;;5034621;28;20556;-73
2023/01/10 03:27:02;;;;;;;5.28;2.53;;;7.10;96.70;;;;;;5039651;28;20048;-73
2023/01/10 03:29:36;;;;;;;7.57;2.45;;;7.30;96.70;;;;;;5040257;28;20063;-73
2023/01/10 03:32:06;;;;;;;3.67;2.28;;;7.40;96.70;;;;;;5041870;28;20407;-72
2023/01/10 03:34:35;;;;;;;5.47;2.53;;;7.40;96.70;;;;;;5042352;28;20041;-73
2023/01/10 03:37:10;;;;;;;4.50;2.33;;;7.40;96.70;;;;;;5045661;28;20040;-72
2023/01/10 03:39:47;;;;;;;3.67;2.03;;;7.40;96.70;;;;;;5044569;28;20059;-73
2023/01/10 03:42:21;;;;;;;5.28;2.10;;;7.40;96.70;;;;;;5044883;28;20040;-73
2023/01/10 03:44:57;;;;;;;4.35;2.05;;;7.40;96.70;;;;;;5043205;28;20459;-73
2023/01/10 03:47:32;;;;;;;3.80;1.90;;;7.20;96.70;;;;;;5045189;28;20168;-73
2023/01/10 03:50:05;;;;;;;4.15;1.80;;;7.20;96.70;;;;;;5045478;28;20087;-76
2023/01/10 03:52:35;;;;;;;6.32;2.80;;;7.20;96.70;;;;;;5043879;28;20049;-72
2023/01/10 03:55:06;;;;;;;4.03;1.80;;;7.10;96.70;;;;;;5045293;28;20049;-73
2023/01/10 03:57:34;;;;;;;5.13;2.22;;;7.20;96.70;;;;;;5044097;28;20045;-73
2023/01/10 04:00:03;;;;;;;5.47;1.90;;;7.20;96.70;;;;;;5045941;28;20830;-73
2023/01/10 04:02:31;;;;;;;4.18;1.80;;;7.30;96.70;;;;;;5043406;28;20099;-73
2023/01/10 04:04:59;;;;;;;3.85;2.13;;;7.30;96.70;;;;;;5043398;28;20045;-73
2023/01/10 04:07:27;;;;;;;3.10;1.52;;;7.30;96.70;;;;;;5035657;28;20044;-74
2023/01/10 04:09:57;;;;;;;4.93;1.80;;;7.30;96.70;;;;;;5043855;28;20041;-73
2023/01/10 04:12:26;;;;;;;4.45;1.50;;;7.20;96.70;;;;;;5027138;28;20057;-73
2023/01/10 04:14:54;;;;;;;3.63;2.00;;;7.20;96.70;;;;;;5043362;28;20529;-73
2023/01/10 04:17:23;;;;;;;4.13;1.73;;;7.20;96.70;;;;;;5043206;28;20053;-71
2023/01/10 04:19:51;;;;;;;2.80;1.42;;;7.20;96.70;;;;;;5043587;28;20094;-73
2023/01/10 04:22:19;;;;;;;3.30;1.90;;;7.10;96.70;;;;;;5043661;28;20524;-73
2023/01/10 04:24:50;;;;;;;4.65;2.05;;;7.10;96.70;;;;;;5045181;28;20048;-73
2023/01/10 04:27:19;;;;;;;3.97;1.83;;;7.10;96.70;;;;;;5045147;28;20041;-73
2023/01/10 04:29:47;;;;;;;4.03;1.67;;;7.20;96.70;;;;;;5043345;28;20072;-73
2023/01/10 04:32:15;;;;;;;4.55;1.70;;;7.00;96.70;;;;;;5042553;28;20041;-73
2023/01/10 04:34:43;;;;;;;2.97;1.20;;;6.90;96.70;;;;;;5044431;28;20197;-73
2023/01/10 04:37:12;;;;;;;4.13;1.23;;;7.10;96.70;;;;;;5044232;28;20037;-73
2023/01/10 04:39:40;;;;;;;2.75;1.33;;;6.90;96.70;;;;;;5043301;28;20118;-73
2023/01/10 04:42:07;;;;;;;4.50;1.90;;;6.90;96.70;;;;;;5044873;28;20406;-73
2023/01/10 04:44:37;;;;;;;3.30;1.50;;;7.00;96.70;;;;;;5042425;28;20188;-73
2023/01/10 04:47:05;;;;;;;4.72;2.10;;;7.00;96.70;;;;;;5042503;28;20055;-73
2023/01/10 04:49:33;;;;;;;3.60;1.63;;;7.00;96.70;;;;;;5042835;28;20045;-73
2023/01/10 04:52:01;;;;;;;2.40;1.42;;;6.90;96.70;;;;;;5042987;28;20045;-73
2023/01/10 04:54:29;;;;;;;5.53;1.45;;;6.80;96.70;;;;;;5039385;28;20049;-74
2023/01/10 04:56:57;;;;;;;4.47;2.15;;;6.80;96.70;;;;;;5042960;28;20048;-73
2023/01/10 04:59:24;;;;;;;2.63;1.55;;;6.70;96.70;;;;;;5042046;28;20071;-73
2023/01/10 05:01:55;;;;;;;3.10;1.80;;;6.70;96.70;;;;;;5044524;28;20045;-73
2023/01/10 05:04:24;;;;;;;5.45;1.88;;;6.60;96.70;;;;;;5042359;28;20049;-72
2023/01/10 05:06:51;;;;;;;4.40;1.55;;;6.70;96.70;;;;;;5049481;28;20593;-73
2023/01/10 05:09:19;;;;;;;8.00;2.38;;;6.70;96.70;;;;;;5044192;28;20151;-73
2023/01/10 05:11:47;;;;;;;3.58;2.00;;;6.70;96.70;;;;;;5043308;28;20554;-73
2023/01/10 05:14:15;;;;;;;3.50;1.90;;;6.70;96.70;;;;;;5045144;28;20094;-73
2023/01/10 05:16:43;;;;;;;3.28;1.83;;;6.70;96.70;;;;;;5029688;28;20052;-73
2023/01/10 05:19:12;;;;;;;3.30;1.50;;;6.80;96.70;;;;;;5044574;28;20049;-73
2023/01/10 05:21:40;;;;;;;3.95;1.42;;;6.70;96.70;;;;;;5040426;28;20799;-73
2023/01/10 05:24:08;;;;;;;2.80;1.60;;;6.70;96.70;;;;;;5041653;28;20110;-73
2023/01/10 05:26:36;;;;;;;3.60;1.80;;;6.60;96.70;;;;;;5043262;28;20060;-73
2023/01/10 05:29:04;;;;;;;3.50;2.05;;;6.60;96.70;;;;;;5033820;28;20047;-73
2023/01/10 05:31:32;;;;;;;4.57;1.48;;;6.60;96.70;;;;;;5042190;28;20498;-72
2023/01/10 05:34:01;;;;;;;4.40;1.60;;;6.50;96.70;;;;;;5025896;28;20044;-72
2023/01/10 05:36:30;;;;;;;2.28;1.30;;;6.50;96.70;;;;;;5040414;28;20075;-72
2023/01/10 05:38:58;;;;;;;4.93;1.88;;;6.50;96.70;;;;;;5042838;28;20045;-73
2023/01/10 05:41:26;;;;;;;6.25;1.75;;;6.30;96.70;;;;;;5043214;28;20044;-73
2023/01/10 05:43:53;;;;;;;2.78;1.58;;;6.40;96.70;;;;;;5025789;28;20049;-73
2023/01/10 05:46:21;;;;;;;2.20;1.30;;;6.30;96.70;;;;;;5042376;28;20053;-73
2023/01/10 05:48:51;;;;;;;2.85;1.45;;;6.30;96.70;;;;;;5041886;28;20091;-73
2023/01/10 05:51:19;;;;;;;2.45;1.52;;;6.30;96.70;;;;;;5042443;28;20041;-73
2023/01/10 05:53:48;;;;;;;3.10;1.50;;;6.30;96.70;;;;;;5043084;28;20041;-72
2023/01/10 05:56:17;;;;;;;2.42;1.23;;;6.30;96.70;;;;;;5043363;28;20052;-73
2023/01/10 05:58:45;;;;;;;2.33;1.38;;;6.30;96.70;;;;;;5041245;28;20041;-73
2023/01/10 06:01:16;;;;;;;3.72;1.52;;;6.30;96.70;;;;;;5025953;28;20503;-72
2023/01/10 06:03:44;;;;;;;5.32;1.92;;;6.30;96.70;;;;;;5041716;28;20047;-73
2023/01/10 06:06:12;;;;;;;3.83;1.63;;;6.30;96.70;;;;;;5039072;28;20044;-73
2023/01/10 06:08:40;;;;;;;5.03;1.98;;;6.50;96.70;;;;;;5041390;28;20049;-73
2023/01/10 06:11:09;;;;;;;4.80;1.85;;;6.50;96.70;;;;;;5041552;28;20057;-73
2023/01/10 06:13:38;;;;;;;3.53;1.73;;;6.50;96.70;;;;;;5041766;28;20357;-73
2023/01/10 06:16:06;;;;;;;5.15;2.15;;;6.60;96.70;;;;;;5042970;28;20072;-73
2023/01/10 06:18:34;;;;;;;5.03;1.95;;;6.60;96.70;;;;;;5042097;28;20044;-72
2023/01/10 06:21:02;;;;;;;4.80;2.10;;;6.50;96.70;;;;;;5043161;28;20087;-73
2023/01/10 06:23:30;;;;;;;6.25;2.10;;;6.50;96.70;;;;;;5041475;28;20052;-72
2023/01/10 06:25:58;;;;;;;4.40;1.60;;;6.50;96.70;;;;;;5043559;28;20055;-73
2023/01/10 06:28:27;;;;;;;4.03;1.90;;;6.50;96.70;;;;;;5041083;28;20098;-73
2023/01/10 06:30:55;;;;;;;5.82;1.70;;;6.40;96.70;;;;;;5042979;28;20037;-73
2023/01/10 06:33:23;;;;;;;6.45;2.60;;;6.40;96.70;;;;;;5042785;28;20052;-73
2023/01/10 06:35:51;;;;;;;5.22;2.20;;;6.40;96.70;;;;;;5036600;28;20044;-72
2023/01/10 06:38:19;;;;;;;5.88;2.20;;;6.40;96.70;;;;;;5024972;28;20061;-73
2023/01/10 06:40:48;;;;;;;8.20;2.17;;;6.50;96.70;;;;;;5041244;28;20047;-73
2023/01/10 06:43:16;;;;;;;8.55;3.08;;;6.40;96.70;;;;;;5040638;28;20049;-73
2023/01/10 06:45:46;;;;;;;5.30;2.17;;;6.40;96.70;;;;;;5024661;28;20047;-73
2023/01/10 06:48:14;;;;;;;5.35;2.60;;;6.40;96.70;;;;;;5040626;28;20139;-74
2023/01/10 06:50:43;;;;;;;5.65;2.70;;;6.30;96.70;;;;;;5034349;28;20060;-73
2023/01/10 06:53:11;;;;;;;5.10;1.95;;;6.30;96.70;;;;;;5041290;28;20442;-73
2023/01/10 06:55:40;;;;;;;5.03;1.98;;;6.40;96.70;;;;;;5041364;28;20059;-73
2023/01/10 06:58:08;;;;;;;5.40;2.33;;;6.40;96.70;;;;;;5024518;28;20403;-73
2023/01/10 07:00:37;;;;;;;4.70;2.22;;;6.30;96.70;;;;;;5041189;28;20052;-73
2023/01/10 07:03:08;;;;;;;6.05;2.40;;;6.30;96.70;;;;;;5041847;28;20045;-73
2023/01/10 07:05:36;;;;;;;9.20;3.00;;;6.20;96.70;;;;;;5020775;28;20677;-73
2023/01/10 07:08:05;;;;;;;6.35;2.55;;;6.20;96.70;;;;;;5043318;28;20554;-73
2023/01/10 07:10:33;;;;;;;4.75;2.30;;;6.30;96.70;;;;;;5046653;28;20048;-73
2023/01/10 07:13:01;;;;;;;7.68;2.05;;;6.30;96.70;;;;;;5046331;28;20041;-73
2023/01/10 07:15:30;;;;;;;8.05;2.75;;;6.20;96.70;;;;;;5044397;28;20044;-73
2023/01/10 07:17:58;;;;;;;4.68;2.08;;;6.20;96.70;;;;;;5046188;28;21212;-73
2023/01/10 07:20:28;;;;;;;3.15;2.05;;;6.30;96.70;;;;;;5046365;28;20067;-73
2023/01/10 07:22:58;;;;;;;6.03;2.15;;;6.30;96.70;;;;;;5046473;28;20141;-73
2023/01/10 07:25:28;;;;;;;8.00;2.50;;;6.30;96.70;;;;;;5039333;28;20045;-74
2023/01/10 07:27:56;;;;;;;5.40;2.30;;;6.20;96.70;;;;;;5043885;28;20049;-73
2023/01/10 07:30:25;;;;;;;7.82;2.67;;;6.20;96.70;;;;;;5036562;28;20041;-73
2023/01/10 07:32:54;;;;;;;9.73;2.72;;;6.30;96.70;;;;;;5046043;28;20115;-73
2023/01/10 07:35:23;;;;;;;6.78;2.47;;;6.30;96.70;;;;;;5041122;28;20069;-73
2023/01/10 07:37:56;;;;;;;3.83;2.45;;;6.40;96.70;;;;;;5041944;28;20053;-73
2023/01/10 07:40:25;;;;;;;5.53;2.70;;;6.40;96.70;;;;;;5044055;28;20063;-73
2023/01/10 07:42:56;;;;;;;7.05;3.28;;;6.10;96.70;;;;;;5037201;28;20049;-75
2023/01/10 07:45:28;;;;;;;7.90;3.40;;;6.10;96.70;;;;;;5044070;28;20053;-72
2023/01/10 07:47:57;;;;;;;7.43;2.92;;;6.20;96.70;;;;;;5045517;28;20049;-72
2023/01/10 07:50:27;;;;;;;7.53;3.47;;;6.20;96.70;;;;;;5044470;28;20037;-72
2023/01/10 07:52:58;;;;;;;8.43;3.40;;;6.20;96.70;;;;;;5045298;28;20045;-72
2023/01/10 07:55:27;;;;;;;5.38;2.95;;;6.30;96.70;;;;;;5045853;28;20419;-73
2023/01/10 07:57:55;;;;;;;10.02;3.67;;;6.30;96.70;;;;;;5044916;28;20044;-74
2023/01/10 08:00:24;;;;;;;13.57;4.05;;;6.40;96.70;;;;;;5028050;28;20146;-74
2023/01/10 08:02:53;;;;;;;10.77;4.30;;;6.40;96.70;;;;;;5042915;28;20055;-73
2023/01/10 08:05:22;;;;;;;14.30;4.80;;;6.50;96.70;;;;;;5040461;28;20120;-72
2023/01/10 08:07:51;;;;;;;10.07;4.25;;;6.60;96.70;;;;;;5045432;28;20068;-73
2023/01/10 08:10:20;;;;;;;9.82;4.00;;;6.60;96.70;;;;;;5045984;28;20049;-74
2023/01/10 08:12:49;;;;;;;10.27;3.28;;;6.70;96.70;;;;;;5043922;28;20056;-74
2023/01/10 08:15:18;;;;;;;7.85;3.42;;;6.70;96.70;;;;;;5045465;28;20111;-73
2023/01/10 08:17:46;;;;;;;5.95;3.00;;;6.70;96.70;;;;;;5027087;28;20049;-75
2023/01/10 08:20:14;;;;;;;9.25;3.00;;;6.70;96.70;;;;;;5044429;28;20044;-74
2023/01/10 08:22:43;;;;;;;4.13;2.47;;;6.80;96.70;;;;;;5045327;28;20049;-74
2023/01/10 08:25:11;;;;;;;8.77;2.88;;;6.80;96.70;;;;;;5044143;28;20055;-74
2023/01/10 08:27:41;;;;;;;5.70;2.83;;;6.80;96.70;;;;;;5044235;28;20045;-74
2023/01/10 08:30:10;;;;;;;5.40;2.50;;;6.90;96.70;;;;;;5043355;28;20052;-74
2023/01/10 08:32:39;;;;;;;9.25;2.90;;;6.90;96.70;;;;;;5044471;28;20170;-75
2023/01/10 08:35:07;;;;;;;5.40;3.70;;;6.90;96.70;;;;;;5043117;28;20045;-75
2023/01/10 08:37:36;;;;;;;6.22;2.78;;;7.00;96.70;;;;;;5045133;28;20067;-73
2023/01/10 08:40:05;;;;;;;5.75;2.65;;;7.10;96.70;;;;;;5045157;28;20127;-73
2023/01/10 08:42:34;;;;;;;7.35;3.10;;;7.00;96.70;;;;;;5042566;28;20044;-73
2023/01/10 08:45:04;;;;;;;5.68;2.72;;;7.00;96.70;;;;;;5043186;28;20420;-73
2023/01/10 08:47:33;;;;;;;7.45;2.88;;;7.10;96.70;;;;;;5035257;28;20069;-74
2023/01/10 08:50:05;;;;;;;7.00;2.72;;;7.30;96.70;;;;;;5044717;28;20056;-74
2023/01/10 08:52:34;;;;;;;4.38;2.85;;;7.30;96.70;;;;;;5043155;28;20049;-73
2023/01/10 08:55:03;;;;;;;6.47;3.10;;;7.40;96.70;;;;;;5044700;28;20110;-73
2023/01/10 08:57:31;;;;;;;4.63;3.15;;;7.40;96.70;;;;;;5041315;28;20041;-73
2023/01/10 09:00:00;;;;;;;6.47;2.70;;;7.50;96.70;;;;;;5044446;28;20075;-74
2023/01/10 09:02:29;;;;;;;4.90;2.70;;;7.50;96.70;;;;;;5043838;28;20497;-73
2023/01/10 09:04:58;;;;;;;5.70;2.83;;;7.50;96.70;;;;;;5024342;28;20045;-73
2023/01/10 09:07:26;;;;;;;4.65;3.00;;;7.60;96.70;;;;;;5041664;28;20049;-73
2023/01/10 09:09:54;;;;;;;4.13;2.63;;;7.70;96.70;;;;;;5042039;28;20029;-72
2023/01/10 09:15:10;;;;;;;;;;;7.80;96.70;;;;;;5043340;28;20051;-72
2023/01/10 09:17:40;;;;;;;6.80;2.63;;;7.90;96.70;;;;;;5043103;28;19924;-73
2023/01/10 09:20:10;;;;;;;5.68;3.40;;;8.00;96.70;;;;;;5022565;28;20056;-73
2023/01/10 09:22:38;;;;;;;6.63;2.70;;;8.10;96.70;;;;;;5044105;28;20090;-73
2023/01/10 09:25:07;;;;;;;6.20;2.88;;;8.20;96.70;;;;;;5044528;28;20091;-72
2023/01/10 09:27:38;;;;;;;7.85;4.88;;;8.20;96.70;;;;;;5043995;28;20251;-73
2023/01/10 09:30:10;;;;;;;8.40;3.13;;;8.20;96.70;;;;;;5042673;28;20075;-73
2023/01/10 09:32:40;;;;;;;8.55;4.03;;;8.30;96.70;;;;;;5041795;28;20494;-73
2023/01/10 09:35:08;;;;;;;7.85;3.60;;;8.40;96.70;;;;;;5043088;28;20138;-73
2023/01/10 09:37:36;;;;;;;6.20;3.20;;;8.50;96.70;;;;;;5042240;28;20055;-76
2023/01/10 09:40:06;;;;;;;7.40;3.65;;;8.50;96.70;;;;;;5044152;28;20746;-73
2023/01/10 09:42:50;;;;;;;9.55;4.00;;;8.70;96.70;;;;;;5042058;28;20052;-73
2023/01/10 09:45:27;;;;;;;7.47;3.92;;;8.80;96.70;;;;;;5033885;28;20094;-73
2023/01/10 09:48:02;;;;;;;11.68;4.72;;;8.80;96.70;;;;;;5004542;28;20060;-73
2023/01/10 09:50:39;;;;;;;7.00;3.78;;;8.70;96.70;;;;;;4982784;28;20141;-73
2023/01/10 09:53:12;;;;;;;11.15;4.10;;;8.80;96.70;;;;;;5004497;28;20056;-73
2023/01/10 09:55:41;;;;;;;12.57;6.35;;;9.00;96.70;;;;;;4999580;28;20069;-74
2023/01/10 09:58:13;;;;;;;12.30;5.40;;;9.10;96.70;;;;;;5003315;28;20056;-73
2023/01/10 10:00:45;;;;;;;14.60;5.25;;;9.20;96.70;;;;;;4988562;28;20137;-73
2023/01/10 10:03:21;;;;;;;9.98;5.15;;;9.40;96.70;;;;;;5002091;28;20052;-73
2023/01/10 10:05:50;;;;;;;10.10;4.88;;;9.50;96.70;;;;;;4998233;28;21195;-73
2023/01/10 10:08:25;;;;;;;9.90;4.85;;;9.60;96.70;;;;;;5002451;28;20045;-75
2023/01/10 10:11:03;;;;;;;9.18;4.30;;;9.60;96.70;;;;;;5002340;28;20033;-73
2023/01/10 10:13:44;;;;;;;11.13;4.35;;;9.70;96.70;;;;;;5002670;28;20045;-73
2023/01/10 10:16:23;;;;;;;8.20;3.92;;;9.80;96.70;;;;;;5003892;28;20042;-74
2023/01/10 10:19:04;;;;;;;6.60;3.80;;;9.90;96.70;;;;;;5002930;28;20049;-73
2023/01/10 10:21:44;;;;;;;6.80;3.78;;;10.10;96.70;;;;;;5003704;28;20409;-74
2023/01/10 10:24:33;;;;;;;8.25;4.18;;;10.20;96.70;;;;;;4984149;28;20052;-73
2023/01/10 10:27:10;;;;;;;6.35;3.65;;;10.30;96.70;;;;;;5001483;28;20061;-74
2023/01/10 10:30:07;;;;;;;9.68;4.38;;;10.40;96.70;;;;;;5002203;28;20045;-74
2023/01/10 10:32:58;;;;;;;10.80;4.70;;;10.50;96.70;;;;;;5002712;28;20062;-73
2023/01/10 10:35:32;;;;;;;8.63;4.10;;;10.70;96.70;;;;;;5000393;28;20137;-74
2023/01/10 10:38:08;;;;;;;9.45;4.38;;;10.80;96.70;;;;;;5000910;28;20042;-74
2023/01/10 10:40:41;;;;;;;8.68;4.60;;;10.80;96.70;;;;;;5002916;28;20045;-74
2023/01/10 10:43:20;;;;;;;7.97;3.60;;;10.90;96.70;;;;;;5001872;28;20045;-74
2023/01/10 10:45:54;;;;;;;8.98;3.90;;;11.00;96.70;;;;;;5008614;28;20053;-73
2023/01/10 10:48:26;;;;;;;9.13;3.92;;;11.00;96.70;;;;;;5040618;28;20391;-73
2023/01/10 10:51:02;;;;;;;6.63;3.45;;;11.10;96.70;;;;;;5033819;28;20072;-74
2023/01/10 10:53:32;;;;;;;6.18;3.08;;;11.20;96.70;;;;;;5042930;28;20053;-73
2023/01/10 10:56:02;;;;;;;7.25;3.58;;;11.40;96.70;;;;;;5042627;28;20049;-73
2023/01/10 10:58:31;;;;;;;6.75;3.60;;;11.50;96.70;;;;;;5040267;28;20049;-74
2023/01/10 11:00:59;;;;;;;9.90;3.63;;;11.60;96.70;;;;;;5040642;28;20275;-73
2023/01/10 11:03:39;;;;;;;6.25;3.50;;;11.60;96.70;;;;;;5024645;28;20055;-73
2023/01/10 11:06:09;;;;;;;5.30;3.05;;;11.60;96.70;;;;;;5040878;28;20131;-74
2023/01/10 11:08:42;;;;;;;7.85;3.22;;;11.70;96.70;;;;;;5041255;28;20589;-73
2023/01/10 11:11:19;;;;;;;6.70;3.08;;;11.80;96.70;;;;;;5040642;28;20406;-73
2023/01/10 11:13:53;;;;;;;6.22;2.85;;;11.70;96.70;;;;;;5042213;28;20139;-74
2023/01/10 11:16:27;;;;;;;7.88;3.75;;;11.80;96.70;;;;;;5024662;28;20132;-74
2023/01/10 11:19:21;;;;;;;6.85;3.95;;;11.90;96.70;;;;;;5042307;28;20048;-73
2023/01/10 11:21:54;;;;;;;8.77;3.50;;;11.90;96.70;;;;;;5027260;28;20093;-73
2023/01/10 11:24:31;;;;;;;8.55;3.30;;;12.10;96.70;;;;;;5041673;28;20094;-73
2023/01/10 11:27:03;;;;;;;5.65;3.80;;;12.20;96.70;;;;;;5042588;28;20132;-74
2023/01/10 11:29:38;;;;;;;7.35;3.45;;;12.30;96.70;;;;;;5022069;28;20053;-73
2023/01/10 11:32:14;;;;;;;6.22;3.72;;;12.40;96.70;;;;;;5040717;28;20476;-73
2023/01/10 11:34:49;;;;;;;6.10;3.70;;;12.50;96.70;;;;;;5040602;28;20041;-73
2023/01/10 11:37:21;;;;;;;6.60;3.58;;;12.70;96.70;;;;;;5040317;28;20045;-73
2023/01/10 11:40:13;;;;;;;6.60;3.92;;;12.70;96.70;;;;;;5040096;28;20057;-75
2023/01/10 11:42:42;;;;;;;5.13;3.45;;;12.80;96.70;;;;;;5040414;28;20052;-73
2023/01/10 11:45:22;;;;;;;5.93;4.05;;;12.90;96.70;;;;;;5040698;28;20450;-74
2023/01/10 11:47:56;;;;;;;8.52;4.20;;;13.00;96.70;;;;;;5020399;28;20052;-74
2023/01/10 11:50:26;;;;;;;6.55;4.78;;;13.10;96.70;;;;;;5021896;28;20053;-74
2023/01/10 11:52:56;;;;;;;7.53;4.03;;;13.10;96.70;;;;;;5022215;28;20047;-74
2023/01/10 11:55:51;;;;;;;;;;;13.20;96.70;;;;;;5017846;28;20117;-74
2023/01/10 11:58:19;;;;;;;5.90;3.92;;;13.40;96.70;;;;;;5025362;28;19935;-74
2023/01/10 12:00:49;;;;;;;7.30;4.43;;;13.60;96.70;;;;;;5025760;28;20049;-74
2023/01/10 12:03:21;;;;;;;9.45;5.22;;;13.70;96.70;;;;;;5023405;28;20049;-75
2023/01/10 12:05:52;;;;;;;9.52;5.20;;;13.80;96.70;;;;;;5026005;28;20398;-73
2023/01/10 12:08:26;;;;;;;8.50;4.05;;;13.90;96.70;;;;;;5007258;28;20080;-75
2023/01/10 12:11:00;;;;;;;5.13;3.47;;;13.90;96.70;;;;;;5023528;28;20160;-74
2023/01/10 12:13:30;;;;;;;5.60;3.60;;;14.00;96.70;;;;;;5023491;28;20046;-74
2023/01/10 12:16:20;;;;;;;6.68;3.80;;;14.10;96.70;;;;;;5025583;28;20038;-73
2023/01/10 12:18:51;;;;;;;6.70;3.20;;;14.30;96.70;;;;;;5024211;28;20068;-73
2023/01/10 12:21:25;;;;;;;5.90;3.22;;;14.50;96.70;;;;;;5024231;28;20072;-74
2023/01/10 12:23:58;;;;;;;11.75;4.32;;;14.60;96.70;;;;;;5024937;28;20049;-74
2023/01/10 12:26:29;;;;;;;7.60;3.67;;;14.70;96.70;;;;;;5025595;28;20138;-74
2023/01/10 12:29:04;;;;;;;6.18;3.85;;;14.80;96.70;;;;;;5022212;28;20142;-73
2023/01/10 12:31:34;;;;;;;6.20;3.72;;;14.80;96.70;;;;;;5023343;28;20091;-74
2023/01/10 12:34:08;;;;;;;9.68;4.15;;;14.90;96.70;;;;;;5021939;28;20096;-73
2023/01/10 12:36:45;;;;;;;5.57;3.08;;;14.80;96.70;;;;;;5017046;28;20499;-74
2023/01/10 12:39:21;;;;;;;6.35;3.13;;;14.80;96.70;;;;;;5025270;28;20049;-74
2023/01/10 12:44:48;;;;;;;4.97;2.00;;;15.00;96.70;;;;;;5019192;28;19951;-74
2023/01/10 12:47:26;;;;;;;5.07;2.05;;;15.10;96.70;;;;;;5040513;28;20111;-74
2023/01/10 12:49:59;;;;;;;3.95;1.63;;;15.20;96.70;;;;;;5044448;28;20045;-73
2023/01/10 12:52:33;;;;;;;5.75;2.15;;;15.20;96.70;;;;;;5026395;28;20065;-75
2023/01/10 12:55:03;;;;;;;4.45;2.60;;;15.40;96.70;;;;;;5043193;28;20068;-74
2023/01/10 12:57:37;;;;;;;3.10;2.03;;;15.50;96.70;;;;;;5042875;28;20052;-73
2023/01/10 13:00:18;;;;;;;4.13;2.08;;;15.60;96.70;;;;;;5043816;28;20045;-73
2023/01/10 13:02:51;;;;;;;4.57;1.75;;;15.70;96.70;;;;;;5043233;28;20048;-73
2023/01/10 13:05:22;;;;;;;4.78;2.15;;;15.80;96.70;;;;;;5042071;28;20914;-73
2023/01/10 13:07:53;;;;;;;5.35;2.70;;;15.90;96.70;;;;;;5042043;28;20057;-73
2023/01/10 13:10:24;;;;;;;5.25;2.17;;;15.90;96.70;;;;;;5041658;28;20053;-73
2023/01/10 13:12:58;;;;;;;5.68;2.58;;;15.90;96.70;;;;;;5043007;28;20671;-73
2023/01/10 13:15:29;;;;;;;4.18;2.08;;;16.00;96.70;;;;;;5042284;28;20051;-73
2023/01/10 13:18:03;;;;;;;3.72;2.25;;;16.10;96.70;;;;;;5042816;28;20596;-73
2023/01/10 13:20:38;;;;;;;4.45;2.05;;;16.10;96.70;;;;;;5041417;28;20152;-73
2023/01/10 13:23:22;;;;;;;5.60;2.42;;;16.10;96.70;;;;;;5042550;28;20154;-73
2023/01/10 13:25:58;;;;;;;4.80;2.67;;;16.00;96.70;;;;;;5043818;28;20135;-73
2023/01/10 13:28:28;;;;;;;7.28;3.10;;;16.00;96.70;;;;;;5041675;28;20144;-73
2023/01/10 13:30:59;;;;;;;8.48;5.05;;;16.10;96.70;;;;;;5042496;28;20053;-73